CheckWX is a tool to help pilots better visualize weather data.  It is not intended as a substitute for an official pre-flight weather briefing.

06:10:04 UTC

KRCZ METAR
Richmond County Airport
Rockingham, North Carolina, USA
Current

30 mins ago

KRCZ 260540Z AUTO 30003KT 10SM CLR 23/19 A3005 RMK AO2 T02280187
Observed
Jun-26 @ 05:40 UTC
Wind
  • 300° at 3 KTS
Visibility
10 SM
Flight Rules
VFR
Cloud Levels
  • Clear skies
Temperature
23°C / 73°F
Dewpoint
19°C / 66°F
Humidity
78%
Altimeter
30.05" Hg
Pressure
1017.62 hPa
Previous

50 mins ago

KRCZ 260520Z AUTO 29004KT 10SM CLR 23/19 A3005 RMK AO2 T02280188
Observed
Jun-26 @ 05:20 UTC
Wind
  • 290° at 4 KTS
Visibility
10 SM
Flight Rules
VFR
Cloud Levels
  • Clear skies
Temperature
23°C / 73°F
Dewpoint
19°C / 66°F
Humidity
78%
Altimeter
30.05" Hg
Pressure
1017.62 hPa
Previous

1 hour ago

KRCZ 260500Z AUTO 27004KT 10SM CLR 23/19 A3005 RMK AO2 T02290185
Observed
Jun-26 @ 05:00 UTC
Wind
  • 270° at 4 KTS
Visibility
10 SM
Flight Rules
VFR
Cloud Levels
  • Clear skies
Temperature
23°C / 73°F
Dewpoint
19°C / 66°F
Humidity
78%
Altimeter
30.05" Hg
Pressure
1017.62 hPa